createdAt,value
2023-03-17T00:01:54.565Z,9.36
2023-03-17T00:04:25.140Z,9.35
2023-03-17T00:06:55.616Z,9.37
2023-03-17T00:09:23.794Z,9.43
2023-03-17T00:11:51.888Z,9.53
2023-03-17T00:14:20.731Z,9.58
2023-03-17T00:16:50.854Z,9.61
2023-03-17T00:19:31.105Z,9.62
2023-03-17T00:22:01.517Z,9.62
2023-03-17T00:24:29.953Z,9.55
2023-03-17T00:26:58.169Z,9.53
2023-03-17T00:29:26.986Z,9.51
2023-03-17T00:31:56.404Z,9.46
2023-03-17T00:34:24.527Z,9.39
2023-03-17T00:36:53.492Z,9.35
2023-03-17T00:39:24.350Z,9.36
2023-03-17T00:41:52.667Z,9.36
2023-03-17T00:44:20.628Z,9.32
2023-03-17T00:46:48.769Z,9.29
2023-03-17T00:49:19.185Z,9.28
2023-03-17T00:51:47.947Z,9.27
2023-03-17T00:54:16.912Z,9.24
2023-03-17T00:56:47.320Z,9.17
2023-03-17T00:59:22.882Z,9.09
2023-03-17T01:01:51.250Z,9.01
2023-03-17T01:04:19.738Z,8.97
2023-03-17T01:06:48.369Z,8.92
2023-03-17T01:09:18.623Z,8.91
2023-03-17T01:11:48.783Z,8.93
2023-03-17T01:14:17.453Z,8.95
2023-03-17T01:16:45.806Z,8.93
2023-03-17T01:19:15.030Z,8.91
2023-03-17T01:21:43.116Z,8.89
2023-03-17T01:24:11.163Z,8.86
2023-03-17T01:26:39.256Z,8.86
2023-03-17T01:29:09.261Z,8.88
2023-03-17T01:31:37.491Z,8.90
2023-03-17T01:34:06.257Z,8.89
2023-03-17T01:36:34.412Z,8.90
2023-03-17T01:39:03.457Z,8.92
2023-03-17T01:41:34.821Z,8.93
2023-03-17T01:44:03.003Z,8.91
2023-03-17T01:46:34.243Z,8.91
2023-03-17T01:49:10.136Z,8.91
2023-03-17T01:51:44.221Z,8.91
2023-03-17T01:54:19.327Z,8.92
2023-03-17T01:56:51.838Z,8.93
2023-03-17T01:59:23.771Z,8.89
2023-03-17T02:01:58.602Z,8.80
2023-03-17T02:04:27.217Z,8.71
2023-03-17T02:06:58.278Z,8.67
2023-03-17T02:09:27.805Z,8.68
2023-03-17T02:11:57.649Z,8.71
2023-03-17T02:14:25.663Z,8.69
2023-03-17T02:16:55.462Z,8.68
2023-03-17T02:19:23.474Z,8.69
2023-03-17T02:21:55.396Z,8.63
2023-03-17T02:24:30.049Z,8.63
2023-03-17T02:27:02.323Z,8.58
2023-03-17T02:29:33.821Z,8.50
2023-03-17T02:32:02.353Z,8.46
2023-03-17T02:34:31.612Z,8.43
2023-03-17T02:37:01.310Z,8.40
2023-03-17T02:39:29.250Z,8.35
2023-03-17T02:41:57.417Z,8.32
2023-03-17T02:44:25.967Z,8.27
2023-03-17T02:46:54.127Z,8.20
2023-03-17T02:49:22.807Z,8.18
2023-03-17T02:51:50.823Z,8.19
2023-03-17T02:54:20.373Z,8.20
2023-03-17T02:56:48.442Z,8.18
2023-03-17T02:59:16.460Z,8.14
2023-03-17T03:01:44.563Z,8.10
2023-03-17T03:04:13.492Z,8.09
2023-03-17T03:06:42.661Z,8.08
2023-03-17T03:09:11.888Z,8.08
2023-03-17T03:11:42.710Z,8.10
2023-03-17T03:14:11.824Z,8.10
2023-03-17T03:16:40.361Z,8.10
2023-03-17T03:19:09.157Z,8.08
2023-03-17T03:21:37.811Z,8.03
2023-03-17T03:24:07.268Z,7.99
2023-03-17T03:26:35.271Z,7.98
2023-03-17T03:29:04.930Z,7.94
2023-03-17T03:31:33.127Z,7.96
2023-03-17T03:34:01.147Z,7.95
2023-03-17T03:36:29.156Z,7.94
2023-03-17T03:38:58.046Z,7.95
2023-03-17T03:41:26.344Z,7.97
2023-03-17T03:43:54.543Z,7.97
2023-03-17T03:46:23.993Z,7.99
2023-03-17T03:48:52.029Z,7.96
2023-03-17T03:51:20.143Z,7.97
2023-03-17T03:53:48.378Z,7.93
2023-03-17T03:56:16.707Z,7.89
2023-03-17T03:58:44.705Z,7.86
2023-03-17T04:01:13.388Z,7.85
2023-03-17T04:03:42.801Z,7.84
2023-03-17T04:06:11.467Z,7.87
2023-03-17T04:08:39.509Z,7.88
2023-03-17T04:11:07.642Z,7.88
2023-03-17T04:13:36.078Z,7.85
2023-03-17T04:16:04.049Z,7.80
2023-03-17T04:18:32.202Z,7.77
2023-03-17T04:21:01.689Z,7.76
2023-03-17T04:23:31.527Z,7.72
2023-03-17T04:25:59.679Z,7.71
2023-03-17T04:28:27.738Z,7.69
2023-03-17T04:30:56.320Z,7.67
2023-03-17T04:33:24.420Z,7.64
2023-03-17T04:35:52.555Z,7.67
2023-03-17T04:38:22.152Z,7.72
2023-03-17T04:40:51.854Z,7.78
2023-03-17T04:43:19.820Z,7.79
2023-03-17T04:45:47.877Z,7.82
2023-03-17T04:48:16.004Z,7.79
2023-03-17T04:50:45.624Z,7.81
2023-03-17T04:53:13.914Z,7.85
2023-03-17T04:55:43.237Z,7.89
2023-03-17T04:58:15.502Z,7.87
2023-03-17T05:00:49.326Z,7.86
2023-03-17T05:03:26.613Z,7.83
2023-03-17T05:05:55.593Z,7.81
2023-03-17T05:08:23.652Z,7.80
2023-03-17T05:10:53.315Z,7.81
2023-03-17T05:13:21.345Z,7.81
2023-03-17T05:15:50.256Z,7.76
2023-03-17T05:18:18.870Z,7.71
2023-03-17T05:20:47.030Z,7.69
2023-03-17T05:23:15.255Z,7.70
2023-03-17T05:25:43.236Z,7.68
2023-03-17T05:28:13.399Z,7.68
2023-03-17T05:30:41.639Z,7.70
2023-03-17T05:33:10.229Z,7.70
2023-03-17T05:35:38.408Z,7.73
2023-03-17T05:38:06.933Z,7.71
2023-03-17T05:40:35.549Z,7.71
2023-03-17T05:43:04.111Z,7.68
2023-03-17T05:45:34.002Z,7.68
2023-03-17T05:48:02.171Z,7.69
2023-03-17T05:50:31.020Z,7.67
2023-03-17T05:52:59.146Z,7.67
2023-03-17T05:55:27.336Z,7.64
2023-03-17T05:57:55.339Z,7.64
2023-03-17T06:00:23.729Z,7.64
2023-03-17T06:02:53.166Z,7.67
2023-03-17T06:05:21.410Z,7.68
2023-03-17T06:07:54.906Z,7.71
2023-03-17T06:10:24.843Z,7.74
2023-03-17T06:12:53.065Z,7.81
2023-03-17T06:15:21.400Z,7.82
2023-03-17T06:17:49.542Z,7.87
2023-03-17T06:20:19.502Z,7.89
2023-03-17T06:23:02.656Z,7.90
2023-03-17T06:25:32.131Z,7.97
2023-03-17T06:28:02.692Z,8.03
2023-03-17T06:30:31.430Z,8.04
2023-03-17T06:33:00.304Z,8.05
2023-03-17T06:35:30.403Z,8.02
2023-03-17T06:37:58.773Z,8.02
2023-03-17T06:40:26.783Z,8.08
2023-03-17T06:42:54.860Z,8.16
2023-03-17T06:45:22.905Z,8.27
2023-03-17T06:47:50.964Z,8.29
2023-03-17T06:50:19.682Z,8.29
2023-03-17T06:52:49.101Z,8.34
2023-03-17T06:55:17.645Z,8.41
2023-03-17T06:57:45.883Z,8.47
2023-03-17T07:00:16.005Z,8.57
2023-03-17T07:02:44.289Z,8.66
2023-03-17T07:05:14.019Z,8.74
2023-03-17T07:07:42.738Z,8.83
2023-03-17T07:10:15.942Z,8.86
2023-03-17T07:12:44.246Z,8.88
2023-03-17T07:15:13.743Z,8.93
2023-03-17T07:17:42.207Z,9.01
2023-03-17T07:20:11.730Z,9.11
2023-03-17T07:22:39.858Z,9.27
2023-03-17T07:25:09.816Z,9.47
2023-03-17T07:27:39.497Z,9.62
2023-03-17T07:30:09.605Z,9.79
2023-03-17T07:32:37.974Z,9.98
2023-03-17T07:35:07.416Z,10.11
2023-03-17T07:37:35.656Z,10.20
2023-03-17T07:40:03.738Z,10.33
2023-03-17T07:42:31.806Z,10.47
2023-03-17T07:45:01.250Z,10.59
2023-03-17T07:47:29.309Z,10.77
2023-03-17T07:49:57.366Z,11.70
2023-03-17T07:52:25.364Z,13.39
2023-03-17T07:54:53.996Z,15.23
2023-03-17T07:57:22.333Z,16.53
2023-03-17T07:59:50.844Z,17.26
2023-03-17T08:02:22.283Z,18.05
2023-03-17T08:04:51.129Z,18.65
2023-03-17T08:07:19.563Z,19.25
2023-03-17T08:09:47.882Z,19.71
2023-03-17T08:12:16.536Z,20.23
2023-03-17T08:14:44.634Z,20.68
2023-03-17T08:17:13.630Z,20.61
2023-03-17T08:19:43.197Z,20.37
2023-03-17T08:22:12.544Z,20.17
2023-03-17T08:24:43.078Z,20.03
2023-03-17T08:27:11.266Z,20.04
2023-03-17T08:29:39.731Z,20.36
2023-03-17T08:32:08.980Z,20.23
2023-03-17T08:34:37.112Z,19.85
2023-03-17T08:37:10.045Z,19.34
2023-03-17T08:39:39.514Z,19.08
2023-03-17T08:42:08.381Z,18.61
2023-03-17T08:44:36.439Z,18.35
2023-03-17T08:47:04.821Z,18.28
2023-03-17T08:49:35.098Z,18.50
2023-03-17T08:52:03.582Z,19.40
2023-03-17T08:54:33.069Z,20.64
2023-03-17T08:57:01.865Z,21.44
2023-03-17T08:59:30.217Z,22.04
2023-03-17T09:01:58.308Z,22.58
2023-03-17T09:04:26.695Z,23.25
2023-03-17T09:07:03.419Z,23.56
2023-03-17T09:09:34.691Z,23.39
2023-03-17T09:12:03.207Z,22.98
2023-03-17T09:14:42.635Z,22.64
2023-03-17T09:17:12.015Z,22.38
2023-03-17T09:19:40.535Z,22.46
2023-03-17T09:22:09.235Z,23.44
2023-03-17T09:24:38.645Z,24.42
2023-03-17T09:27:07.206Z,25.39
2023-03-17T09:29:35.743Z,26.25
2023-03-17T09:32:03.862Z,26.78
2023-03-17T09:34:31.998Z,27.27
2023-03-17T09:37:00.841Z,28.35
2023-03-17T09:39:28.963Z,28.66
2023-03-17T09:42:13.281Z,29.69
2023-03-17T09:44:56.988Z,31.99
2023-03-17T09:48:04.791Z,34.73
2023-03-17T09:50:40.324Z,36.39
2023-03-17T09:53:18.185Z,37.21
2023-03-17T09:55:49.394Z,37.96
2023-03-17T09:58:26.158Z,38.66
2023-03-17T10:00:54.189Z,39.40
2023-03-17T10:03:22.395Z,40.07
2023-03-17T10:05:50.530Z,41.32
2023-03-17T10:08:31.181Z,42.39
2023-03-17T10:11:11.049Z,42.78
2023-03-17T10:13:54.972Z,43.32
2023-03-17T10:16:38.259Z,44.39
2023-03-17T10:19:17.578Z,44.99
2023-03-17T10:21:53.691Z,45.51
2023-03-17T10:24:23.058Z,44.91
2023-03-17T10:26:53.388Z,44.47
2023-03-17T10:29:24.550Z,44.45
2023-03-17T10:31:55.218Z,44.44
2023-03-17T10:34:27.703Z,44.50
2023-03-17T10:36:57.617Z,45.70
2023-03-17T10:39:25.808Z,46.42
2023-03-17T10:41:57.602Z,46.19
2023-03-17T10:44:46.178Z,46.26
2023-03-17T10:47:24.271Z,46.39
2023-03-17T10:49:52.651Z,45.37
2023-03-17T10:52:23.995Z,43.55
2023-03-17T10:54:52.738Z,43.33
2023-03-17T10:57:21.520Z,44.30
2023-03-17T10:59:53.853Z,45.45
2023-03-17T11:02:27.052Z,47.09
2023-03-17T11:04:59.822Z,48.95
2023-03-17T11:07:32.466Z,50.28
2023-03-17T11:10:04.388Z,50.72
2023-03-17T11:12:37.262Z,51.21
2023-03-17T11:15:11.574Z,51.45
2023-03-17T11:17:44.184Z,51.29
2023-03-17T11:20:37.272Z,50.48
2023-03-17T11:23:12.126Z,49.35
2023-03-17T11:25:44.110Z,48.14
2023-03-17T11:28:20.390Z,46.57
2023-03-17T11:31:06.589Z,43.21
2023-03-17T11:33:39.491Z,39.24
2023-03-17T11:36:20.069Z,35.49
2023-03-17T11:38:58.530Z,32.55
2023-03-17T11:41:46.556Z,30.48
2023-03-17T11:44:42.196Z,28.56
2023-03-17T11:47:23.055Z,27.20
2023-03-17T11:50:02.312Z,26.36
2023-03-17T11:52:37.255Z,25.83
2023-03-17T11:55:14.569Z,25.13
2023-03-17T11:57:48.330Z,24.58
2023-03-17T12:00:25.191Z,24.29
2023-03-17T12:03:00.338Z,24.00
2023-03-17T12:05:30.096Z,23.88
2023-03-17T12:08:00.790Z,23.79
2023-03-17T12:10:34.876Z,23.69
2023-03-17T12:13:08.194Z,23.40
2023-03-17T12:15:41.783Z,23.30
2023-03-17T12:18:17.424Z,23.27
2023-03-17T12:20:52.828Z,23.30
2023-03-17T12:23:30.520Z,23.37
2023-03-17T12:26:03.910Z,23.34
2023-03-17T12:28:37.717Z,23.26
2023-03-17T12:31:09.062Z,23.12
2023-03-17T12:33:45.329Z,23.06
2023-03-17T12:36:17.007Z,23.03
2023-03-17T12:38:49.995Z,22.88
2023-03-17T12:41:44.175Z,22.85
2023-03-17T12:44:27.625Z,22.93
2023-03-17T12:47:12.959Z,23.00
2023-03-17T12:50:05.891Z,23.06
2023-03-17T12:52:48.532Z,23.00
2023-03-17T12:55:18.799Z,22.93
2023-03-17T12:57:48.972Z,22.92
2023-03-17T13:00:24.671Z,22.88
2023-03-17T13:03:08.946Z,22.85
2023-03-17T13:05:38.607Z,22.84
2023-03-17T13:08:11.088Z,22.79
2023-03-17T13:10:42.747Z,22.68
2023-03-17T13:13:23.327Z,22.62
2023-03-17T13:15:59.651Z,22.58
2023-03-17T13:18:48.151Z,22.41
2023-03-17T13:21:19.299Z,22.35
2023-03-17T13:23:49.439Z,22.32
2023-03-17T13:26:21.386Z,22.24
2023-03-17T13:28:51.197Z,22.15
2023-03-17T13:31:37.211Z,22.16
2023-03-17T13:34:15.307Z,22.18
2023-03-17T13:36:53.988Z,22.19
2023-03-17T13:40:01.313Z,22.23
2023-03-17T13:42:44.648Z,22.32
2023-03-17T13:45:25.043Z,22.41
2023-03-17T13:47:55.293Z,22.51
2023-03-17T13:50:26.435Z,22.47
2023-03-17T13:52:58.773Z,22.44
2023-03-17T13:55:38.110Z,22.38
2023-03-17T13:58:27.658Z,22.29
2023-03-17T14:01:03.886Z,22.20
2023-03-17T14:03:38.941Z,22.09
2023-03-17T14:06:09.890Z,22.05
2023-03-17T14:08:44.470Z,22.02
2023-03-17T14:11:22.683Z,21.91
2023-03-17T14:14:01.057Z,21.78
2023-03-17T14:16:33.275Z,21.66
2023-03-17T14:19:12.414Z,21.53
2023-03-17T14:21:40.897Z,21.48
2023-03-17T14:24:21.280Z,21.40
2023-03-17T14:26:50.432Z,21.29
2023-03-17T14:29:21.390Z,21.18
2023-03-17T14:31:50.888Z,21.08
2023-03-17T14:34:22.806Z,21.00
2023-03-17T14:36:52.767Z,20.95
2023-03-17T14:39:25.909Z,20.89
2023-03-17T14:42:03.462Z,20.88
2023-03-17T14:44:38.274Z,20.81
2023-03-17T14:47:13.902Z,20.73
2023-03-17T14:49:41.957Z,20.65
2023-03-17T14:52:22.551Z,20.63
2023-03-17T14:54:54.723Z,20.60
2023-03-17T14:57:24.775Z,20.56
2023-03-17T15:00:00.950Z,20.56
2023-03-17T15:02:34.326Z,20.53
2023-03-17T15:05:06.781Z,20.52
2023-03-17T15:07:39.784Z,20.47
2023-03-17T15:10:17.107Z,20.37
2023-03-17T15:12:47.380Z,20.34
2023-03-17T15:15:24.051Z,20.31
2023-03-17T15:17:53.535Z,20.25
2023-03-17T15:20:21.946Z,20.26
2023-03-17T15:22:57.099Z,20.26
2023-03-17T15:25:29.290Z,20.33
2023-03-17T15:27:57.472Z,20.36
2023-03-17T15:30:29.443Z,20.35
2023-03-17T15:33:02.448Z,20.38
2023-03-17T15:35:30.856Z,20.43
2023-03-17T15:37:58.972Z,20.47
2023-03-17T15:40:28.544Z,20.45
2023-03-17T15:42:57.315Z,20.43
2023-03-17T15:45:25.535Z,20.48
2023-03-17T15:47:53.660Z,20.54
2023-03-17T15:50:25.624Z,20.54
2023-03-17T15:52:56.053Z,20.50
2023-03-17T15:55:25.317Z,20.52
2023-03-17T15:57:56.561Z,20.50
2023-03-17T16:00:26.653Z,20.44
2023-03-17T16:02:56.343Z,20.38
2023-03-17T16:05:26.304Z,20.30
2023-03-17T16:07:54.915Z,20.22
2023-03-17T16:10:25.623Z,20.17
2023-03-17T16:12:55.577Z,20.10
2023-03-17T16:15:26.202Z,20.00
2023-03-17T16:17:56.737Z,19.85
2023-03-17T16:20:27.282Z,19.66
2023-03-17T16:22:58.682Z,19.51
2023-03-17T16:25:28.411Z,19.45
2023-03-17T16:27:59.816Z,19.40
2023-03-17T16:30:31.494Z,19.28
2023-03-17T16:33:03.378Z,19.20
2023-03-17T16:35:31.564Z,19.19
2023-03-17T16:37:59.624Z,19.17
2023-03-17T16:40:30.586Z,19.09
2023-03-17T16:43:00.226Z,18.98
2023-03-17T16:45:32.758Z,18.88
2023-03-17T16:48:02.312Z,18.78
2023-03-17T16:50:33.304Z,18.69
2023-03-17T16:53:01.601Z,18.56
2023-03-17T16:55:30.451Z,18.43
2023-03-17T16:58:04.244Z,18.34
2023-03-17T17:00:33.343Z,18.32
2023-03-17T17:03:01.980Z,18.28
2023-03-17T17:05:31.278Z,18.22
2023-03-17T17:07:59.977Z,18.10
2023-03-17T17:10:30.467Z,17.94
2023-03-17T17:13:00.352Z,17.84
2023-03-17T17:15:29.066Z,17.78
2023-03-17T17:18:00.751Z,17.73
2023-03-17T17:20:30.977Z,17.64
2023-03-17T17:22:59.612Z,17.58
2023-03-17T17:25:28.279Z,17.56
2023-03-17T17:27:56.969Z,17.54
2023-03-17T17:30:28.915Z,17.55
2023-03-17T17:32:59.180Z,17.48
2023-03-17T17:35:30.717Z,17.42
2023-03-17T17:38:00.723Z,17.38
2023-03-17T17:40:29.438Z,17.37
2023-03-17T17:42:57.928Z,17.35
2023-03-17T17:45:27.423Z,17.33
2023-03-17T17:47:55.488Z,17.32
2023-03-17T17:50:26.743Z,17.29
2023-03-17T17:52:55.081Z,17.24
2023-03-17T17:55:23.131Z,17.19
2023-03-17T17:57:52.590Z,17.18
2023-03-17T18:00:21.758Z,17.13
2023-03-17T18:02:51.250Z,17.08
2023-03-17T18:05:19.251Z,17.03
2023-03-17T18:07:47.230Z,16.97
2023-03-17T18:10:18.699Z,16.91
2023-03-17T18:12:46.775Z,16.81
2023-03-17T18:15:14.776Z,16.74
2023-03-17T18:17:43.230Z,16.70
2023-03-17T18:20:16.370Z,16.70
2023-03-17T18:22:44.565Z,16.64
2023-03-17T18:25:14.333Z,16.63
2023-03-17T18:27:43.191Z,16.61
2023-03-17T18:30:14.308Z,16.58
2023-03-17T18:32:44.354Z,16.53
2023-03-17T18:35:18.590Z,16.48
2023-03-17T18:37:46.858Z,16.41
2023-03-17T18:40:18.752Z,16.36
2023-03-17T18:42:47.481Z,16.33
2023-03-17T18:45:16.205Z,16.31
2023-03-17T18:47:44.209Z,16.26
2023-03-17T18:50:16.031Z,16.20
2023-03-17T18:52:45.158Z,16.15
2023-03-17T18:55:15.508Z,16.12
2023-03-17T18:57:45.019Z,16.04
2023-03-17T19:00:16.419Z,15.96
2023-03-17T19:02:45.042Z,15.90
2023-03-17T19:05:14.512Z,15.88
2023-03-17T19:07:42.587Z,15.81
2023-03-17T19:10:12.318Z,15.76
2023-03-17T19:12:40.635Z,15.61
2023-03-17T19:15:10.742Z,15.48
2023-03-17T19:17:39.067Z,15.39
2023-03-17T19:20:10.110Z,15.35
2023-03-17T19:22:40.295Z,15.32
2023-03-17T19:25:09.922Z,15.35
2023-03-17T19:27:38.064Z,15.35
2023-03-17T19:30:07.471Z,15.39
2023-03-17T19:32:35.541Z,15.37
2023-03-17T19:35:03.514Z,15.31
2023-03-17T19:37:32.599Z,15.20
2023-03-17T19:40:02.062Z,15.14
2023-03-17T19:42:30.078Z,15.11
2023-03-17T19:44:58.085Z,15.11
2023-03-17T19:47:26.380Z,15.08
2023-03-17T19:49:54.402Z,15.01
2023-03-17T19:52:22.672Z,14.97
2023-03-17T19:54:50.674Z,14.94
2023-03-17T19:57:21.052Z,14.94
2023-03-17T19:59:49.125Z,14.96
2023-03-17T20:02:17.983Z,14.98
2023-03-17T20:04:46.055Z,15.00
2023-03-17T20:07:14.560Z,14.98
2023-03-17T20:09:44.664Z,14.82
2023-03-17T20:12:12.992Z,14.69
2023-03-17T20:14:42.524Z,14.56
2023-03-17T20:17:10.641Z,14.43
2023-03-17T20:19:39.514Z,14.37
2023-03-17T20:22:09.129Z,14.35
2023-03-17T20:24:38.382Z,14.35
2023-03-17T20:27:08.550Z,14.34
2023-03-17T20:29:36.630Z,14.33
2023-03-17T20:32:07.185Z,14.39
2023-03-17T20:34:35.923Z,14.40
2023-03-17T20:37:04.237Z,14.41
2023-03-17T20:39:32.697Z,14.40
2023-03-17T20:42:01.748Z,14.34
2023-03-17T20:44:29.983Z,14.25
2023-03-17T20:46:58.133Z,14.14
2023-03-17T20:49:27.816Z,14.01
2023-03-17T20:51:56.247Z,13.95
2023-03-17T20:54:24.469Z,13.87
2023-03-17T20:56:55.991Z,13.80
2023-03-17T20:59:24.802Z,13.75
2023-03-17T21:01:52.869Z,13.74
2023-03-17T21:04:21.367Z,13.73
2023-03-17T21:06:50.795Z,13.72
2023-03-17T21:09:18.957Z,13.76
2023-03-17T21:11:49.204Z,13.81
2023-03-17T21:14:17.359Z,13.76
2023-03-17T21:16:47.301Z,13.74
2023-03-17T21:19:16.140Z,13.74
2023-03-17T21:21:44.644Z,13.77
2023-03-17T21:24:41.552Z,13.80
2023-03-17T21:27:12.094Z,13.81
2023-03-17T21:29:41.082Z,13.83
2023-03-17T21:32:09.674Z,13.82
2023-03-17T21:34:38.681Z,13.81
2023-03-17T21:37:07.016Z,13.78
2023-03-17T21:39:36.795Z,13.74
2023-03-17T21:42:05.444Z,13.72
2023-03-17T21:44:33.592Z,13.69
2023-03-17T21:47:02.697Z,13.60
2023-03-17T21:49:30.862Z,13.54
2023-03-17T21:51:58.945Z,13.51
2023-03-17T21:54:26.954Z,13.45
2023-03-17T21:56:56.464Z,13.42
2023-03-17T21:59:25.044Z,13.39
2023-03-17T22:01:53.492Z,13.37
2023-03-17T22:04:21.582Z,13.29
2023-03-17T22:06:49.685Z,13.23
2023-03-17T22:09:19.286Z,13.19
2023-03-17T22:11:47.514Z,13.14
2023-03-17T22:14:20.499Z,13.07
2023-03-17T22:16:48.755Z,12.94
2023-03-17T22:19:20.627Z,12.82
2023-03-17T22:21:49.156Z,12.66
2023-03-17T22:24:17.443Z,12.50
2023-03-17T22:26:45.536Z,12.35
2023-03-17T22:29:13.712Z,12.27
2023-03-17T22:31:43.259Z,12.19
2023-03-17T22:34:11.395Z,12.19
2023-03-17T22:36:39.587Z,12.18
2023-03-17T22:39:08.880Z,12.17
2023-03-17T22:41:37.863Z,12.09
2023-03-17T22:44:08.297Z,12.07
2023-03-17T22:46:36.585Z,12.09
2023-03-17T22:49:06.777Z,12.12
2023-03-17T22:51:36.062Z,12.11
2023-03-17T22:54:04.614Z,12.10
2023-03-17T22:56:32.892Z,12.13
2023-03-17T22:59:01.122Z,12.15
2023-03-17T23:01:29.395Z,12.20
2023-03-17T23:03:57.590Z,12.25
2023-03-17T23:06:27.017Z,12.28
2023-03-17T23:08:55.104Z,12.31
2023-03-17T23:11:25.572Z,12.30
2023-03-17T23:13:54.324Z,12.27
2023-03-17T23:16:23.261Z,12.25
2023-03-17T23:18:51.516Z,12.20
2023-03-17T23:21:25.037Z,12.06
2023-03-17T23:23:54.644Z,12.02
2023-03-17T23:26:22.700Z,12.03
2023-03-17T23:28:50.913Z,12.06
2023-03-17T23:31:19.593Z,12.03
2023-03-17T23:33:47.979Z,12.03
2023-03-17T23:36:17.136Z,12.03
2023-03-17T23:38:46.090Z,12.01
2023-03-17T23:41:15.558Z,12.03
2023-03-17T23:43:44.130Z,12.05
2023-03-17T23:46:13.130Z,12.06
2023-03-17T23:48:42.956Z,12.07
2023-03-17T23:51:12.587Z,12.09
2023-03-17T23:53:41.814Z,12.09
2023-03-17T23:56:11.538Z,12.10
2023-03-17T23:58:42.502Z,12.11
